sensor_id;sensor_type;location;lat;lon;timestamp;P1;durP1;ratioP1;P2;durP2;ratioP2
59930;SDS011;45790;51.538;6.736;2024-02-15T00:01:25;9.70;;;6.23;;
59930;SDS011;45790;51.538;6.736;2024-02-15T00:03:50;10.90;;;5.97;;
59930;SDS011;45790;51.538;6.736;2024-02-15T00:06:16;8.88;;;5.28;;
59930;SDS011;45790;51.538;6.736;2024-02-15T00:08:41;9.82;;;5.88;;
59930;SDS011;45790;51.538;6.736;2024-02-15T00:11:06;11.90;;;5.87;;
59930;SDS011;45790;51.538;6.736;2024-02-15T00:13:34;10.52;;;5.95;;
59930;SDS011;45790;51.538;6.736;2024-02-15T00:16:00;13.70;;;5.97;;
59930;SDS011;45790;51.538;6.736;2024-02-15T00:18:26;10.55;;;6.15;;
59930;SDS011;45790;51.538;6.736;2024-02-15T00:20:51;8.85;;;5.53;;
59930;SDS011;45790;51.538;6.736;2024-02-15T00:23:17;9.90;;;5.65;;
59930;SDS011;45790;51.538;6.736;2024-02-15T00:25:42;16.30;;;6.73;;
59930;SDS011;45790;51.538;6.736;2024-02-15T00:28:09;8.55;;;5.32;;
59930;SDS011;45790;51.538;6.736;2024-02-15T00:30:34;11.18;;;5.70;;
59930;SDS011;45790;51.538;6.736;2024-02-15T00:33:00;9.23;;;6.03;;
59930;SDS011;45790;51.538;6.736;2024-02-15T00:35:25;11.45;;;6.15;;
59930;SDS011;45790;51.538;6.736;2024-02-15T00:37:52;15.45;;;6.35;;
59930;SDS011;45790;51.538;6.736;2024-02-15T00:40:17;12.13;;;6.47;;
59930;SDS011;45790;51.538;6.736;2024-02-15T00:42:43;9.40;;;5.95;;
59930;SDS011;45790;51.538;6.736;2024-02-15T00:45:08;11.23;;;6.57;;
59930;SDS011;45790;51.538;6.736;2024-02-15T00:47:36;11.23;;;5.90;;
59930;SDS011;45790;51.538;6.736;2024-02-15T00:50:03;9.98;;;5.80;;
59930;SDS011;45790;51.538;6.736;2024-02-15T00:52:28;10.18;;;5.97;;
59930;SDS011;45790;51.538;6.736;2024-02-15T00:54:55;9.00;;;4.95;;
59930;SDS011;45790;51.538;6.736;2024-02-15T00:57:20;9.33;;;4.80;;
59930;SDS011;45790;51.538;6.736;2024-02-15T00:59:46;9.63;;;5.38;;
59930;SDS011;45790;51.538;6.736;2024-02-15T01:02:11;11.00;;;5.00;;
59930;SDS011;45790;51.538;6.736;2024-02-15T01:04:37;11.02;;;5.40;;
59930;SDS011;45790;51.538;6.736;2024-02-15T01:07:03;8.52;;;5.20;;
59930;SDS011;45790;51.538;6.736;2024-02-15T01:09:29;10.57;;;4.88;;
59930;SDS011;45790;51.538;6.736;2024-02-15T01:11:54;10.73;;;4.85;;
59930;SDS011;45790;51.538;6.736;2024-02-15T01:14:19;10.27;;;4.82;;
59930;SDS011;45790;51.538;6.736;2024-02-15T01:16:44;9.40;;;5.22;;
59930;SDS011;45790;51.538;6.736;2024-02-15T01:19:10;10.02;;;4.68;;
59930;SDS011;45790;51.538;6.736;2024-02-15T01:21:35;10.77;;;4.88;;
59930;SDS011;45790;51.538;6.736;2024-02-15T01:24:01;11.77;;;4.97;;
59930;SDS011;45790;51.538;6.736;2024-02-15T01:26:26;11.55;;;4.88;;
59930;SDS011;45790;51.538;6.736;2024-02-15T01:28:52;9.57;;;5.10;;
59930;SDS011;45790;51.538;6.736;2024-02-15T01:31:17;9.77;;;4.95;;
59930;SDS011;45790;51.538;6.736;2024-02-15T01:33:43;7.33;;;4.80;;
59930;SDS011;45790;51.538;6.736;2024-02-15T01:36:08;8.38;;;5.10;;
59930;SDS011;45790;51.538;6.736;2024-02-15T01:38:33;11.85;;;4.78;;
59930;SDS011;45790;51.538;6.736;2024-02-15T01:40:58;11.77;;;4.93;;
59930;SDS011;45790;51.538;6.736;2024-02-15T01:43:24;13.57;;;5.43;;
59930;SDS011;45790;51.538;6.736;2024-02-15T01:45:50;10.27;;;5.50;;
59930;SDS011;45790;51.538;6.736;2024-02-15T01:48:16;10.65;;;4.97;;
59930;SDS011;45790;51.538;6.736;2024-02-15T01:50:41;12.97;;;5.20;;
59930;SDS011;45790;51.538;6.736;2024-02-15T01:53:08;12.15;;;4.75;;
59930;SDS011;45790;51.538;6.736;2024-02-15T01:55:33;13.05;;;5.25;;
59930;SDS011;45790;51.538;6.736;2024-02-15T01:57:59;12.75;;;5.18;;
59930;SDS011;45790;51.538;6.736;2024-02-15T02:00:25;11.57;;;5.50;;
59930;SDS011;45790;51.538;6.736;2024-02-15T02:02:50;17.52;;;5.82;;
59930;SDS011;45790;51.538;6.736;2024-02-15T02:05:16;12.25;;;5.05;;
59930;SDS011;45790;51.538;6.736;2024-02-15T02:07:42;12.63;;;5.00;;
59930;SDS011;45790;51.538;6.736;2024-02-15T02:10:07;14.10;;;5.00;;
59930;SDS011;45790;51.538;6.736;2024-02-15T02:12:34;16.20;;;5.50;;
59930;SDS011;45790;51.538;6.736;2024-02-15T02:14:59;13.75;;;5.53;;
59930;SDS011;45790;51.538;6.736;2024-02-15T02:17:24;16.40;;;5.30;;
59930;SDS011;45790;51.538;6.736;2024-02-15T02:19:49;14.77;;;4.77;;
59930;SDS011;45790;51.538;6.736;2024-02-15T02:22:15;13.05;;;5.22;;
59930;SDS011;45790;51.538;6.736;2024-02-15T02:24:44;12.23;;;4.78;;
59930;SDS011;45790;51.538;6.736;2024-02-15T02:27:13;15.27;;;5.10;;
59930;SDS011;45790;51.538;6.736;2024-02-15T02:29:42;15.98;;;4.50;;
59930;SDS011;45790;51.538;6.736;2024-02-15T02:32:10;10.55;;;4.60;;
59930;SDS011;45790;51.538;6.736;2024-02-15T02:34:36;14.73;;;4.93;;
59930;SDS011;45790;51.538;6.736;2024-02-15T02:37:01;13.10;;;4.97;;
59930;SDS011;45790;51.538;6.736;2024-02-15T02:39:30;16.00;;;5.03;;
59930;SDS011;45790;51.538;6.736;2024-02-15T02:41:56;13.30;;;4.50;;
59930;SDS011;45790;51.538;6.736;2024-02-15T02:44:22;14.45;;;5.03;;
59930;SDS011;45790;51.538;6.736;2024-02-15T02:46:47;14.82;;;4.65;;
59930;SDS011;45790;51.538;6.736;2024-02-15T02:49:12;10.83;;;4.60;;
59930;SDS011;45790;51.538;6.736;2024-02-15T02:51:37;12.40;;;4.40;;
59930;SDS011;45790;51.538;6.736;2024-02-15T02:54:03;13.68;;;5.00;;
59930;SDS011;45790;51.538;6.736;2024-02-15T02:56:31;14.43;;;4.82;;
59930;SDS011;45790;51.538;6.736;2024-02-15T02:58:57;12.57;;;4.55;;
59930;SDS011;45790;51.538;6.736;2024-02-15T03:01:22;12.10;;;4.33;;
59930;SDS011;45790;51.538;6.736;2024-02-15T03:03:51;12.02;;;4.40;;
59930;SDS011;45790;51.538;6.736;2024-02-15T03:06:16;13.73;;;4.70;;
59930;SDS011;45790;51.538;6.736;2024-02-15T03:08:42;12.60;;;4.78;;
59930;SDS011;45790;51.538;6.736;2024-02-15T03:11:08;12.63;;;4.63;;
59930;SDS011;45790;51.538;6.736;2024-02-15T03:13:33;13.27;;;4.90;;
59930;SDS011;45790;51.538;6.736;2024-02-15T03:15:58;12.00;;;5.10;;
59930;SDS011;45790;51.538;6.736;2024-02-15T03:18:23;17.58;;;4.57;;
59930;SDS011;45790;51.538;6.736;2024-02-15T03:20:49;11.05;;;4.20;;
59930;SDS011;45790;51.538;6.736;2024-02-15T03:23:15;15.25;;;4.70;;
59930;SDS011;45790;51.538;6.736;2024-02-15T03:25:40;13.10;;;4.78;;
59930;SDS011;45790;51.538;6.736;2024-02-15T03:28:05;10.73;;;4.10;;
59930;SDS011;45790;51.538;6.736;2024-02-15T03:30:31;14.07;;;4.40;;
59930;SDS011;45790;51.538;6.736;2024-02-15T03:33:00;14.40;;;4.40;;
59930;SDS011;45790;51.538;6.736;2024-02-15T03:35:26;12.20;;;3.80;;
59930;SDS011;45790;51.538;6.736;2024-02-15T03:37:51;12.10;;;4.43;;
59930;SDS011;45790;51.538;6.736;2024-02-15T03:40:17;12.30;;;4.28;;
59930;SDS011;45790;51.538;6.736;2024-02-15T03:42:43;13.43;;;4.60;;
59930;SDS011;45790;51.538;6.736;2024-02-15T03:45:08;12.63;;;4.00;;
59930;SDS011;45790;51.538;6.736;2024-02-15T03:47:33;11.07;;;3.90;;
59930;SDS011;45790;51.538;6.736;2024-02-15T03:49:59;8.77;;;3.90;;
59930;SDS011;45790;51.538;6.736;2024-02-15T03:52:25;8.93;;;3.95;;
59930;SDS011;45790;51.538;6.736;2024-02-15T03:54:50;14.68;;;4.18;;
59930;SDS011;45790;51.538;6.736;2024-02-15T03:57:15;9.68;;;3.75;;
59930;SDS011;45790;51.538;6.736;2024-02-15T03:59:42;11.32;;;4.05;;
59930;SDS011;45790;51.538;6.736;2024-02-15T04:02:07;14.57;;;4.60;;
59930;SDS011;45790;51.538;6.736;2024-02-15T04:04:37;21.20;;;4.55;;
59930;SDS011;45790;51.538;6.736;2024-02-15T04:07:02;13.13;;;4.63;;
59930;SDS011;45790;51.538;6.736;2024-02-15T04:09:28;16.63;;;5.05;;
59930;SDS011;45790;51.538;6.736;2024-02-15T04:11:53;11.27;;;4.60;;
59930;SDS011;45790;51.538;6.736;2024-02-15T04:14:19;14.18;;;4.55;;
59930;SDS011;45790;51.538;6.736;2024-02-15T04:16:44;13.73;;;4.20;;
59930;SDS011;45790;51.538;6.736;2024-02-15T04:19:10;12.48;;;4.10;;
59930;SDS011;45790;51.538;6.736;2024-02-15T04:21:35;14.80;;;4.30;;
59930;SDS011;45790;51.538;6.736;2024-02-15T04:24:00;11.05;;;4.22;;
59930;SDS011;45790;51.538;6.736;2024-02-15T04:26:26;12.90;;;4.30;;
59930;SDS011;45790;51.538;6.736;2024-02-15T04:28:52;11.32;;;4.03;;
59930;SDS011;45790;51.538;6.736;2024-02-15T04:31:19;11.77;;;3.88;;
59930;SDS011;45790;51.538;6.736;2024-02-15T04:33:46;12.07;;;3.78;;
59930;SDS011;45790;51.538;6.736;2024-02-15T04:36:14;8.57;;;3.60;;
59930;SDS011;45790;51.538;6.736;2024-02-15T04:38:40;9.57;;;4.53;;
59930;SDS011;45790;51.538;6.736;2024-02-15T04:41:05;13.70;;;4.70;;
59930;SDS011;45790;51.538;6.736;2024-02-15T04:43:33;12.45;;;5.20;;
59930;SDS011;45790;51.538;6.736;2024-02-15T04:45:58;11.98;;;5.10;;
59930;SDS011;45790;51.538;6.736;2024-02-15T04:48:24;14.17;;;4.80;;
59930;SDS011;45790;51.538;6.736;2024-02-15T04:50:49;14.32;;;5.07;;
59930;SDS011;45790;51.538;6.736;2024-02-15T04:53:15;14.80;;;5.25;;
59930;SDS011;45790;51.538;6.736;2024-02-15T04:55:40;15.15;;;5.18;;
59930;SDS011;45790;51.538;6.736;2024-02-15T04:58:05;17.95;;;4.63;;
59930;SDS011;45790;51.538;6.736;2024-02-15T05:00:30;14.63;;;4.80;;
59930;SDS011;45790;51.538;6.736;2024-02-15T05:02:56;14.00;;;4.53;;
59930;SDS011;45790;51.538;6.736;2024-02-15T05:05:21;12.00;;;4.85;;
59930;SDS011;45790;51.538;6.736;2024-02-15T05:07:47;18.00;;;4.85;;
59930;SDS011;45790;51.538;6.736;2024-02-15T05:10:14;8.73;;;4.07;;
59930;SDS011;45790;51.538;6.736;2024-02-15T05:12:41;17.67;;;5.72;;
59930;SDS011;45790;51.538;6.736;2024-02-15T05:15:07;15.80;;;5.55;;
59930;SDS011;45790;51.538;6.736;2024-02-15T05:17:36;13.75;;;5.22;;
59930;SDS011;45790;51.538;6.736;2024-02-15T05:20:01;12.00;;;4.63;;
59930;SDS011;45790;51.538;6.736;2024-02-15T05:22:29;12.57;;;4.43;;
59930;SDS011;45790;51.538;6.736;2024-02-15T05:24:54;10.80;;;4.15;;
59930;SDS011;45790;51.538;6.736;2024-02-15T05:27:20;9.10;;;4.03;;
59930;SDS011;45790;51.538;6.736;2024-02-15T05:29:45;13.38;;;4.40;;
59930;SDS011;45790;51.538;6.736;2024-02-15T05:32:10;9.05;;;3.72;;
59930;SDS011;45790;51.538;6.736;2024-02-15T05:34:36;10.93;;;4.13;;
59930;SDS011;45790;51.538;6.736;2024-02-15T05:37:04;14.45;;;4.75;;
59930;SDS011;45790;51.538;6.736;2024-02-15T05:39:31;12.50;;;4.85;;
59930;SDS011;45790;51.538;6.736;2024-02-15T05:41:56;15.50;;;4.90;;
59930;SDS011;45790;51.538;6.736;2024-02-15T05:44:25;13.43;;;5.10;;
59930;SDS011;45790;51.538;6.736;2024-02-15T05:46:50;10.50;;;5.00;;
59930;SDS011;45790;51.538;6.736;2024-02-15T05:49:15;15.63;;;5.23;;
59930;SDS011;45790;51.538;6.736;2024-02-15T05:51:42;13.95;;;5.45;;
59930;SDS011;45790;51.538;6.736;2024-02-15T05:54:07;10.38;;;4.70;;
59930;SDS011;45790;51.538;6.736;2024-02-15T05:56:32;11.67;;;4.70;;
59930;SDS011;45790;51.538;6.736;2024-02-15T05:58:58;10.03;;;3.97;;
59930;SDS011;45790;51.538;6.736;2024-02-15T06:01:23;11.85;;;3.88;;
59930;SDS011;45790;51.538;6.736;2024-02-15T06:03:49;8.30;;;3.45;;
59930;SDS011;45790;51.538;6.736;2024-02-15T06:06:14;8.10;;;3.55;;
59930;SDS011;45790;51.538;6.736;2024-02-15T06:08:39;14.52;;;4.05;;
59930;SDS011;45790;51.538;6.736;2024-02-15T06:11:04;16.45;;;4.13;;
59930;SDS011;45790;51.538;6.736;2024-02-15T06:16:00;9.32;;;4.18;;
59930;SDS011;45790;51.538;6.736;2024-02-15T06:18:27;13.10;;;3.77;;
59930;SDS011;45790;51.538;6.736;2024-02-15T06:20:54;11.68;;;3.80;;
59930;SDS011;45790;51.538;6.736;2024-02-15T06:23:21;9.82;;;3.63;;
59930;SDS011;45790;51.538;6.736;2024-02-15T06:25:47;13.35;;;4.03;;
59930;SDS011;45790;51.538;6.736;2024-02-15T06:28:12;12.82;;;3.90;;
59930;SDS011;45790;51.538;6.736;2024-02-15T06:30:44;13.27;;;3.30;;
59930;SDS011;45790;51.538;6.736;2024-02-15T06:33:28;7.57;;;3.40;;
59930;SDS011;45790;51.538;6.736;2024-02-15T06:36:12;11.23;;;4.25;;
59930;SDS011;45790;51.538;6.736;2024-02-15T06:38:56;13.10;;;4.07;;
59930;SDS011;45790;51.538;6.736;2024-02-15T06:41:40;11.90;;;4.07;;
59930;SDS011;45790;51.538;6.736;2024-02-15T06:44:05;13.55;;;4.10;;
59930;SDS011;45790;51.538;6.736;2024-02-15T06:46:30;8.45;;;3.83;;
59930;SDS011;45790;51.538;6.736;2024-02-15T06:48:56;10.47;;;3.80;;
59930;SDS011;45790;51.538;6.736;2024-02-15T06:51:23;14.32;;;4.07;;
59930;SDS011;45790;51.538;6.736;2024-02-15T06:53:49;10.98;;;4.25;;
59930;SDS011;45790;51.538;6.736;2024-02-15T06:56:16;12.80;;;4.82;;
59930;SDS011;45790;51.538;6.736;2024-02-15T06:58:41;10.50;;;4.15;;
59930;SDS011;45790;51.538;6.736;2024-02-15T07:01:06;11.13;;;4.70;;
59930;SDS011;45790;51.538;6.736;2024-02-15T07:03:33;11.30;;;4.50;;
59930;SDS011;45790;51.538;6.736;2024-02-15T07:05:58;8.17;;;3.77;;
59930;SDS011;45790;51.538;6.736;2024-02-15T07:08:23;11.73;;;4.28;;
59930;SDS011;45790;51.538;6.736;2024-02-15T07:10:49;14.43;;;4.65;;
59930;SDS011;45790;51.538;6.736;2024-02-15T07:13:15;10.43;;;4.10;;
59930;SDS011;45790;51.538;6.736;2024-02-15T07:15:40;17.83;;;5.33;;
59930;SDS011;45790;51.538;6.736;2024-02-15T07:18:05;18.50;;;6.22;;
59930;SDS011;45790;51.538;6.736;2024-02-15T07:20:33;16.45;;;6.57;;
59930;SDS011;45790;51.538;6.736;2024-02-15T07:22:59;16.25;;;5.70;;
59930;SDS011;45790;51.538;6.736;2024-02-15T07:25:24;14.60;;;5.70;;
59930;SDS011;45790;51.538;6.736;2024-02-15T07:27:49;15.00;;;5.40;;
59930;SDS011;45790;51.538;6.736;2024-02-15T07:30:15;11.40;;;5.00;;
59930;SDS011;45790;51.538;6.736;2024-02-15T07:32:40;10.80;;;4.57;;
59930;SDS011;45790;51.538;6.736;2024-02-15T07:35:05;16.60;;;6.13;;
59930;SDS011;45790;51.538;6.736;2024-02-15T07:37:33;23.35;;;5.72;;
59930;SDS011;45790;51.538;6.736;2024-02-15T07:39:58;15.27;;;5.70;;
59930;SDS011;45790;51.538;6.736;2024-02-15T07:42:24;10.60;;;4.30;;
59930;SDS011;45790;51.538;6.736;2024-02-15T07:44:50;10.32;;;4.15;;
59930;SDS011;45790;51.538;6.736;2024-02-15T07:47:15;15.63;;;5.03;;
59930;SDS011;45790;51.538;6.736;2024-02-15T07:49:42;10.68;;;4.07;;
59930;SDS011;45790;51.538;6.736;2024-02-15T07:52:08;12.73;;;3.80;;
59930;SDS011;45790;51.538;6.736;2024-02-15T07:54:34;11.07;;;4.30;;
59930;SDS011;45790;51.538;6.736;2024-02-15T07:57:00;8.25;;;3.22;;
59930;SDS011;45790;51.538;6.736;2024-02-15T07:59:25;9.18;;;3.60;;
59930;SDS011;45790;51.538;6.736;2024-02-15T08:01:50;9.43;;;3.90;;
59930;SDS011;45790;51.538;6.736;2024-02-15T08:04:16;9.73;;;4.03;;
59930;SDS011;45790;51.538;6.736;2024-02-15T08:06:42;11.43;;;3.90;;
59930;SDS011;45790;51.538;6.736;2024-02-15T08:09:07;10.30;;;4.53;;
59930;SDS011;45790;51.538;6.736;2024-02-15T08:11:38;11.10;;;4.20;;
59930;SDS011;45790;51.538;6.736;2024-02-15T08:14:05;9.18;;;3.95;;
59930;SDS011;45790;51.538;6.736;2024-02-15T08:16:33;10.48;;;3.63;;
59930;SDS011;45790;51.538;6.736;2024-02-15T08:18:59;10.40;;;4.57;;
59930;SDS011;45790;51.538;6.736;2024-02-15T08:21:30;12.73;;;4.15;;
59930;SDS011;45790;51.538;6.736;2024-02-15T08:24:01;10.88;;;4.63;;
59930;SDS011;45790;51.538;6.736;2024-02-15T08:26:32;12.13;;;4.05;;
59930;SDS011;45790;51.538;6.736;2024-02-15T08:28:57;8.15;;;4.07;;
59930;SDS011;45790;51.538;6.736;2024-02-15T08:31:22;9.90;;;4.53;;
59930;SDS011;45790;51.538;6.736;2024-02-15T08:33:48;12.10;;;4.78;;
59930;SDS011;45790;51.538;6.736;2024-02-15T08:36:13;12.50;;;4.47;;
59930;SDS011;45790;51.538;6.736;2024-02-15T08:38:39;13.40;;;4.70;;
59930;SDS011;45790;51.538;6.736;2024-02-15T08:41:04;12.82;;;5.07;;
59930;SDS011;45790;51.538;6.736;2024-02-15T08:43:31;12.52;;;4.88;;
59930;SDS011;45790;51.538;6.736;2024-02-15T08:45:59;9.82;;;4.40;;
59930;SDS011;45790;51.538;6.736;2024-02-15T08:48:24;11.35;;;4.47;;
59930;SDS011;45790;51.538;6.736;2024-02-15T08:50:49;14.48;;;4.68;;
59930;SDS011;45790;51.538;6.736;2024-02-15T08:53:15;13.95;;;5.25;;
59930;SDS011;45790;51.538;6.736;2024-02-15T08:55:40;24.13;;;5.82;;
59930;SDS011;45790;51.538;6.736;2024-02-15T08:58:06;13.32;;;6.03;;
59930;SDS011;45790;51.538;6.736;2024-02-15T09:00:31;13.25;;;5.35;;
59930;SDS011;45790;51.538;6.736;2024-02-15T09:02:56;13.23;;;5.57;;
59930;SDS011;45790;51.538;6.736;2024-02-15T09:05:22;14.57;;;5.32;;
59930;SDS011;45790;51.538;6.736;2024-02-15T09:07:47;13.27;;;4.65;;
59930;SDS011;45790;51.538;6.736;2024-02-15T09:10:13;7.93;;;3.80;;
59930;SDS011;45790;51.538;6.736;2024-02-15T09:12:39;11.80;;;3.70;;
59930;SDS011;45790;51.538;6.736;2024-02-15T09:15:05;6.75;;;2.97;;
59930;SDS011;45790;51.538;6.736;2024-02-15T09:17:31;9.18;;;2.60;;
59930;SDS011;45790;51.538;6.736;2024-02-15T09:19:57;6.43;;;2.42;;
59930;SDS011;45790;51.538;6.736;2024-02-15T09:22:22;7.28;;;2.60;;
59930;SDS011;45790;51.538;6.736;2024-02-15T09:24:48;5.82;;;2.55;;
59930;SDS011;45790;51.538;6.736;2024-02-15T09:27:13;9.48;;;2.85;;
59930;SDS011;45790;51.538;6.736;2024-02-15T09:29:38;6.17;;;2.57;;
59930;SDS011;45790;51.538;6.736;2024-02-15T09:32:05;8.18;;;2.65;;
59930;SDS011;45790;51.538;6.736;2024-02-15T09:34:30;9.27;;;2.78;;
59930;SDS011;45790;51.538;6.736;2024-02-15T09:36:55;6.43;;;2.30;;
59930;SDS011;45790;51.538;6.736;2024-02-15T09:39:21;8.93;;;2.70;;
59930;SDS011;45790;51.538;6.736;2024-02-15T09:41:48;6.65;;;2.50;;
59930;SDS011;45790;51.538;6.736;2024-02-15T09:44:18;6.43;;;2.60;;
59930;SDS011;45790;51.538;6.736;2024-02-15T09:46:44;6.65;;;2.13;;
59930;SDS011;45790;51.538;6.736;2024-02-15T09:49:11;8.57;;;2.60;;
59930;SDS011;45790;51.538;6.736;2024-02-15T09:51:36;9.95;;;2.50;;
59930;SDS011;45790;51.538;6.736;2024-02-15T09:54:02;6.32;;;2.22;;
59930;SDS011;45790;51.538;6.736;2024-02-15T09:56:27;5.90;;;2.40;;
59930;SDS011;45790;51.538;6.736;2024-02-15T09:58:54;8.23;;;2.53;;
59930;SDS011;45790;51.538;6.736;2024-02-15T10:01:22;10.13;;;2.65;;
59930;SDS011;45790;51.538;6.736;2024-02-15T10:03:49;11.13;;;3.17;;
59930;SDS011;45790;51.538;6.736;2024-02-15T10:06:15;11.07;;;3.30;;
59930;SDS011;45790;51.538;6.736;2024-02-15T10:08:43;9.38;;;3.60;;
59930;SDS011;45790;51.538;6.736;2024-02-15T10:11:08;8.43;;;2.90;;
59930;SDS011;45790;51.538;6.736;2024-02-15T10:13:33;10.23;;;3.70;;
59930;SDS011;45790;51.538;6.736;2024-02-15T10:15:59;14.55;;;4.32;;
59930;SDS011;45790;51.538;6.736;2024-02-15T10:18:24;16.88;;;4.65;;
59930;SDS011;45790;51.538;6.736;2024-02-15T10:20:58;16.27;;;4.80;;
59930;SDS011;45790;51.538;6.736;2024-02-15T10:23:24;13.57;;;5.40;;
59930;SDS011;45790;51.538;6.736;2024-02-15T10:25:49;13.95;;;4.97;;
59930;SDS011;45790;51.538;6.736;2024-02-15T10:28:19;11.55;;;4.43;;
59930;SDS011;45790;51.538;6.736;2024-02-15T10:30:45;10.27;;;3.42;;
59930;SDS011;45790;51.538;6.736;2024-02-15T10:33:34;9.10;;;3.00;;
59930;SDS011;45790;51.538;6.736;2024-02-15T10:36:06;10.02;;;3.65;;
59930;SDS011;45790;51.538;6.736;2024-02-15T10:38:33;11.25;;;3.38;;
59930;SDS011;45790;51.538;6.736;2024-02-15T10:41:07;9.80;;;4.00;;
59930;SDS011;45790;51.538;6.736;2024-02-15T10:43:37;12.00;;;4.20;;
59930;SDS011;45790;51.538;6.736;2024-02-15T10:46:03;9.90;;;3.45;;
59930;SDS011;45790;51.538;6.736;2024-02-15T10:48:29;12.23;;;3.63;;
59930;SDS011;45790;51.538;6.736;2024-02-15T10:50:55;10.05;;;3.78;;
59930;SDS011;45790;51.538;6.736;2024-02-15T10:53:21;16.83;;;4.55;;
59930;SDS011;45790;51.538;6.736;2024-02-15T10:55:53;13.73;;;4.18;;
59930;SDS011;45790;51.538;6.736;2024-02-15T10:58:19;11.57;;;4.20;;
59930;SDS011;45790;51.538;6.736;2024-02-15T11:00:44;18.35;;;3.88;;
59930;SDS011;45790;51.538;6.736;2024-02-15T11:03:11;14.85;;;3.25;;
59930;SDS011;45790;51.538;6.736;2024-02-15T11:05:40;17.13;;;3.75;;
59930;SDS011;45790;51.538;6.736;2024-02-15T11:08:09;17.05;;;3.65;;
59930;SDS011;45790;51.538;6.736;2024-02-15T11:10:38;13.68;;;3.78;;
59930;SDS011;45790;51.538;6.736;2024-02-15T11:13:08;16.15;;;4.00;;
59930;SDS011;45790;51.538;6.736;2024-02-15T11:18:06;18.10;;;4.65;;
59930;SDS011;45790;51.538;6.736;2024-02-15T11:23:00;20.52;;;5.50;;
59930;SDS011;45790;51.538;6.736;2024-02-15T11:25:35;15.50;;;4.45;;
59930;SDS011;45790;51.538;6.736;2024-02-15T11:30:46;12.38;;;4.13;;
59930;SDS011;45790;51.538;6.736;2024-02-15T11:36:09;13.63;;;4.40;;
59930;SDS011;45790;51.538;6.736;2024-02-15T11:38:35;12.90;;;4.40;;
59930;SDS011;45790;51.538;6.736;2024-02-15T11:41:04;15.27;;;3.95;;
59930;SDS011;45790;51.538;6.736;2024-02-15T11:46:14;14.40;;;4.30;;
59930;SDS011;45790;51.538;6.736;2024-02-15T11:48:40;15.27;;;4.20;;
59930;SDS011;45790;51.538;6.736;2024-02-15T11:51:06;13.27;;;4.18;;
59930;SDS011;45790;51.538;6.736;2024-02-15T11:53:31;18.75;;;4.85;;
59930;SDS011;45790;51.538;6.736;2024-02-15T11:55:59;17.23;;;4.20;;
59930;SDS011;45790;51.538;6.736;2024-02-15T11:58:25;14.40;;;3.70;;
59930;SDS011;45790;51.538;6.736;2024-02-15T12:00:59;13.40;;;3.72;;
59930;SDS011;45790;51.538;6.736;2024-02-15T12:03:43;13.52;;;3.80;;
59930;SDS011;45790;51.538;6.736;2024-02-15T12:06:27;13.52;;;3.60;;
59930;SDS011;45790;51.538;6.736;2024-02-15T12:09:11;12.52;;;3.78;;
59930;SDS011;45790;51.538;6.736;2024-02-15T12:11:58;12.95;;;3.45;;
59930;SDS011;45790;51.538;6.736;2024-02-15T12:14:42;10.90;;;3.92;;
59930;SDS011;45790;51.538;6.736;2024-02-15T12:17:26;13.75;;;3.55;;
59930;SDS011;45790;51.538;6.736;2024-02-15T12:20:10;10.45;;;3.22;;
59930;SDS011;45790;51.538;6.736;2024-02-15T12:22:39;13.30;;;3.60;;
59930;SDS011;45790;51.538;6.736;2024-02-15T12:25:06;14.23;;;3.50;;
59930;SDS011;45790;51.538;6.736;2024-02-15T12:27:37;16.85;;;3.60;;
59930;SDS011;45790;51.538;6.736;2024-02-15T12:30:02;11.50;;;3.78;;
59930;SDS011;45790;51.538;6.736;2024-02-15T12:32:30;14.40;;;4.38;;
59930;SDS011;45790;51.538;6.736;2024-02-15T12:35:12;12.20;;;3.40;;
59930;SDS011;45790;51.538;6.736;2024-02-15T12:40:17;7.22;;;3.15;;
59930;SDS011;45790;51.538;6.736;2024-02-15T12:42:43;13.88;;;3.47;;
59930;SDS011;45790;51.538;6.736;2024-02-15T12:45:18;17.33;;;4.10;;
59930;SDS011;45790;51.538;6.736;2024-02-15T12:47:45;12.15;;;3.90;;
59930;SDS011;45790;51.538;6.736;2024-02-15T12:50:14;16.67;;;4.30;;
59930;SDS011;45790;51.538;6.736;2024-02-15T12:52:40;11.20;;;3.90;;
59930;SDS011;45790;51.538;6.736;2024-02-15T12:55:09;15.90;;;4.57;;
59930;SDS011;45790;51.538;6.736;2024-02-15T12:57:35;11.13;;;3.95;;
59930;SDS011;45790;51.538;6.736;2024-02-15T13:00:01;15.48;;;4.25;;
59930;SDS011;45790;51.538;6.736;2024-02-15T13:02:26;18.10;;;3.85;;
59930;SDS011;45790;51.538;6.736;2024-02-15T13:04:57;12.47;;;3.50;;
59930;SDS011;45790;51.538;6.736;2024-02-15T13:07:22;12.88;;;3.20;;
59930;SDS011;45790;51.538;6.736;2024-02-15T13:09:47;15.03;;;3.00;;
59930;SDS011;45790;51.538;6.736;2024-02-15T13:12:13;10.00;;;3.30;;
59930;SDS011;45790;51.538;6.736;2024-02-15T13:14:38;9.83;;;2.87;;
59930;SDS011;45790;51.538;6.736;2024-02-15T13:17:04;9.07;;;3.13;;
59930;SDS011;45790;51.538;6.736;2024-02-15T13:19:29;9.07;;;2.67;;
59930;SDS011;45790;51.538;6.736;2024-02-15T13:21:54;10.53;;;3.03;;
59930;SDS011;45790;51.538;6.736;2024-02-15T13:24:22;11.23;;;3.20;;
59930;SDS011;45790;51.538;6.736;2024-02-15T13:26:51;7.50;;;2.80;;
59930;SDS011;45790;51.538;6.736;2024-02-15T13:29:16;13.65;;;2.90;;
59930;SDS011;45790;51.538;6.736;2024-02-15T13:31:41;15.05;;;3.25;;
59930;SDS011;45790;51.538;6.736;2024-02-15T13:34:07;14.45;;;3.40;;
59930;SDS011;45790;51.538;6.736;2024-02-15T13:36:33;11.10;;;3.05;;
59930;SDS011;45790;51.538;6.736;2024-02-15T13:38:59;9.82;;;2.88;;
59930;SDS011;45790;51.538;6.736;2024-02-15T13:41:24;12.30;;;3.40;;
59930;SDS011;45790;51.538;6.736;2024-02-15T13:43:50;11.25;;;3.40;;
59930;SDS011;45790;51.538;6.736;2024-02-15T13:46:15;21.40;;;4.50;;
59930;SDS011;45790;51.538;6.736;2024-02-15T13:48:41;12.02;;;4.05;;
59930;SDS011;45790;51.538;6.736;2024-02-15T13:51:06;16.65;;;4.00;;
59930;SDS011;45790;51.538;6.736;2024-02-15T13:53:34;21.58;;;4.55;;
59930;SDS011;45790;51.538;6.736;2024-02-15T13:55:59;20.38;;;4.57;;
59930;SDS011;45790;51.538;6.736;2024-02-15T13:58:25;18.17;;;4.22;;
59930;SDS011;45790;51.538;6.736;2024-02-15T14:00:50;19.17;;;4.10;;
59930;SDS011;45790;51.538;6.736;2024-02-15T14:03:17;13.07;;;3.97;;
59930;SDS011;45790;51.538;6.736;2024-02-15T14:05:43;11.73;;;3.28;;
59930;SDS011;45790;51.538;6.736;2024-02-15T14:08:10;16.20;;;3.53;;
59930;SDS011;45790;51.538;6.736;2024-02-15T14:10:36;11.63;;;3.20;;
59930;SDS011;45790;51.538;6.736;2024-02-15T14:13:01;12.00;;;2.90;;
59930;SDS011;45790;51.538;6.736;2024-02-15T14:15:28;16.08;;;3.00;;
59930;SDS011;45790;51.538;6.736;2024-02-15T14:17:54;9.25;;;3.35;;
59930;SDS011;45790;51.538;6.736;2024-02-15T14:20:20;10.70;;;2.95;;
59930;SDS011;45790;51.538;6.736;2024-02-15T14:22:46;7.88;;;2.30;;
59930;SDS011;45790;51.538;6.736;2024-02-15T14:25:18;8.60;;;2.40;;
59930;SDS011;45790;51.538;6.736;2024-02-15T14:27:43;7.45;;;2.38;;
59930;SDS011;45790;51.538;6.736;2024-02-15T14:30:09;6.90;;;2.45;;
59930;SDS011;45790;51.538;6.736;2024-02-15T14:32:52;6.72;;;2.60;;
59930;SDS011;45790;51.538;6.736;2024-02-15T14:38:02;9.85;;;2.50;;
59930;SDS011;45790;51.538;6.736;2024-02-15T14:40:30;7.53;;;2.53;;
59930;SDS011;45790;51.538;6.736;2024-02-15T14:42:56;7.45;;;2.17;;
59930;SDS011;45790;51.538;6.736;2024-02-15T14:45:21;7.47;;;2.08;;
59930;SDS011;45790;51.538;6.736;2024-02-15T14:47:47;9.88;;;2.30;;
59930;SDS011;45790;51.538;6.736;2024-02-15T14:50:12;6.83;;;2.17;;
59930;SDS011;45790;51.538;6.736;2024-02-15T14:52:38;6.70;;;2.30;;
59930;SDS011;45790;51.538;6.736;2024-02-15T14:55:04;6.72;;;1.98;;
59930;SDS011;45790;51.538;6.736;2024-02-15T14:57:30;5.38;;;1.70;;